To NAV CANADA Home Page Login to a new session Search on AWWS site Feedback and Comments Disclaimer Vers la page française équivalente Tips FAQ What's new on the site To the Forecasts and Observations / NOTAM section To "File a Flight Plan" website Publications and other links Update of the User's profile FIC Telephone Numbers My Weather Data Folder Route Weather Data Regional Weather Data Local Weather Data To the Forecasts and Observations / NOTAM section
Request Generated 10/17/2017 at 01:56:42 UTC . Weather information available at that time is displayed.

METAR/TAF

LOURDES-DE-BLANC-SABLON/QC    

METAR CYBX 170100Z 31006KT 15SM FEW025 00/M01 A2985 RMK SC1 SC TR
SLP112=
METAR CYBX 170000Z 02003KT 310V050 15SM FEW025 M00/M02 A2982 RMK SC1
SC TR SLP101=
METAR CYBX 162300Z 35003KT 330V040 15SM FEW025 01/M01 A2978 RMK SC1
SLP088=

TAF CYBX 170139Z 1702/1714 31006KT P6SM FEW025
FM170300 VRB03KT P6SM SCT030 TEMPO 1703/1712 BKN030
FM171200 VRB03KT P6SM BKN040 BKN090
RMK NXT FCST BY 170800Z=
Your time UTC time
Weather data provided by Environment Canada and NAV CANADA